Silver Bergen — LAHO6 — position and weather

sailwx.info

Track history (hours):
 
Tides and Currents Weather Stations Pressure Air Temp Water Temp Dewpoint Dewpoint Depression Visibility Wind Speed Wind Dir Waves Ship Positions

Silver Bergen

Last reported at 2018-May-26 03:32 UTC. Time now 2018-May-26 14:07 UTC.
Position N 36°36' W 000°35'.

Length 98 m; draft 6.1 m.

Type: Cargo ship. MMSI: 257951000.

Date/timePositionNaut miles runAvg speedWind from/ knotsBaromVisibWave heightAir tempDewpointWater temp
2018-May-26 03:32N 36°36' W 000°35'014.6
2018-May-26 03:30N 36°36' W 000°36'1014.7
2018-May-26 02:49N 36°35' W 000°48'21715.0
2018-May-25 12:22N 35°60' W 005°14'616.8
2018-May-25 12:00N 35°59' W 005°22'816.0
2018-May-25 11:30N 35°57' W 005°31'25712.2
2018-May-24 14:30N 38°20' W 009°59'  
2018-May-22 04:04N 52°05' W 011°01'114.6
2018-May-22 03:59N 52°06' W 011°01'9314.2
2018-May-21 21:28N 53°38' W 010°47'714.3
2018-May-21 20:59N 53°45' W 010°46'814.2
2018-May-21 20:27N 53°53' W 010°45'914.4
2018-May-21 19:50N 54°02' W 010°44'714.1
2018-May-21 19:22N 54°08' W 010°42'514.2
2018-May-21 19:00N 54°13' W 010°40'714.1
2018-May-21 18:31N 54°20' W 010°37'713.9
2018-May-21 18:00N 54°27' W 010°34'  
2018-May-17 02:22N 61°43' E 004°23'411.2
2018-May-17 02:00N 61°43' E 004°32'611.4
2018-May-17 01:30N 61°42' E 004°44'611.4
2018-May-17 00:59N 61°45' E 004°55'612.7
2018-May-17 00:30N 61°48' E 005°06'611.6
2018-May-17 00:00N 61°52' E 005°16'510.9
2018-May-16 23:30N 61°55' E 005°07'0 0.8
2018-May-16 22:59N 61°56' E 005°07'0 0.0
2018-May-16 22:29N 61°56' E 005°07'0 0.0
2018-May-16 21:59N 61°56' E 005°07'0 0.0
2018-May-16 21:29N 61°56' E 005°07'0 0.0
2018-May-16 20:59N 61°56' E 005°07'0 0.0
2018-May-16 20:29N 61°56' E 005°07'0 0.0
2018-May-16 19:59N 61°56' E 005°07'0 0.0
2018-May-16 19:29N 61°56' E 005°07'0 0.0
2018-May-16 18:59N 61°56' E 005°07'0 0.0
2018-May-16 18:29N 61°56' E 005°07'0 0.0
2018-May-16 17:59N 61°56' E 005°07'0 0.0
2018-May-16 17:29N 61°56' E 005°07'0 0.0
2018-May-16 16:59N 61°56' E 005°07'0 0.0
2018-May-16 16:29N 61°56' E 005°07'0 0.0
2018-May-16 15:59N 61°56' E 005°07'0 0.0
2018-May-16 15:29N 61°56' E 005°07'0 0.0
2018-May-16 14:59N 61°56' E 005°07'0 0.0
2018-May-16 14:29N 61°56' E 005°07'0 0.0
2018-May-16 13:59N 61°56' E 005°07'0 0.0
2018-May-16 13:29N 61°56' E 005°07'0 0.0
2018-May-16 12:59N 61°56' E 005°07'0 0.0
2018-May-16 12:29N 61°56' E 005°07'0 0.0
2018-May-16 11:59N 61°56' E 005°07'0 0.0
2018-May-16 11:29N 61°56' E 005°07'0 0.0
2018-May-16 10:59N 61°56' E 005°07'0 0.0
2018-May-16 10:29N 61°56' E 005°07'0 0.0
2018-May-16 09:59N 61°56' E 005°07'0 0.0
2018-May-16 09:29N 61°56' E 005°07'0 0.0
2018-May-16 08:59N 61°56' E 005°07'0 0.0
2018-May-16 08:29N 61°56' E 005°07'0 0.0
2018-May-16 07:59N 61°56' E 005°07'0 0.0
2018-May-16 07:29N 61°56' E 005°07'0 0.0
2018-May-16 06:59N 61°56' E 005°07'0 0.0
2018-May-16 06:29N 61°56' E 005°07'0 0.0
2018-May-16 05:59N 61°56' E 005°07'0 0.0
2018-May-16 05:29N 61°56' E 005°07'0 0.0
2018-May-16 04:59N 61°56' E 005°07'0 0.0
2018-May-16 04:29N 61°56' E 005°07'0 0.0
2018-May-16 03:59N 61°56' E 005°07'  
Track history (hours):
 
Tides and Currents Weather Stations Pressure Air Temp Water Temp Dewpoint Dewpoint Depression Visibility Wind Speed Wind Dir Waves Ship Positions

Silver Bergen

Last reported at 2018-May-26 03:32 UTC. Time now 2018-May-26 14:07 UTC.
Position N 36°36' W 000°35'.

Length 98 m; draft 6.1 m.

Type: Cargo ship. MMSI: 257951000.

Date/timePositionNaut miles runAvg speedWind from/ knotsBaromVisibWave heightAir tempDewpointWater temp
2018-May-26 03:32N 36°36' W 000°35'014.6
2018-May-26 03:30N 36°36' W 000°36'1014.7
2018-May-26 02:49N 36°35' W 000°48'21715.0
2018-May-25 12:22N 35°60' W 005°14'616.8
2018-May-25 12:00N 35°59' W 005°22'816.0
2018-May-25 11:30N 35°57' W 005°31'25712.2
2018-May-24 14:30N 38°20' W 009°59'  
2018-May-22 04:04N 52°05' W 011°01'114.6
2018-May-22 03:59N 52°06' W 011°01'9314.2
2018-May-21 21:28N 53°38' W 010°47'714.3
2018-May-21 20:59N 53°45' W 010°46'814.2
2018-May-21 20:27N 53°53' W 010°45'914.4
2018-May-21 19:50N 54°02' W 010°44'714.1
2018-May-21 19:22N 54°08' W 010°42'514.2
2018-May-21 19:00N 54°13' W 010°40'714.1
2018-May-21 18:31N 54°20' W 010°37'713.9
2018-May-21 18:00N 54°27' W 010°34'  
2018-May-17 02:22N 61°43' E 004°23'411.2
2018-May-17 02:00N 61°43' E 004°32'611.4
2018-May-17 01:30N 61°42' E 004°44'611.4
2018-May-17 00:59N 61°45' E 004°55'612.7
2018-May-17 00:30N 61°48' E 005°06'611.6
2018-May-17 00:00N 61°52' E 005°16'510.9
2018-May-16 23:30N 61°55' E 005°07'0 0.8
2018-May-16 22:59N 61°56' E 005°07'0 0.0
2018-May-16 22:29N 61°56' E 005°07'0 0.0
2018-May-16 21:59N 61°56' E 005°07'0 0.0
2018-May-16 21:29N 61°56' E 005°07'0 0.0
2018-May-16 20:59N 61°56' E 005°07'0 0.0
2018-May-16 20:29N 61°56' E 005°07'0 0.0
2018-May-16 19:59N 61°56' E 005°07'0 0.0
2018-May-16 19:29N 61°56' E 005°07'0 0.0
2018-May-16 18:59N 61°56' E 005°07'0 0.0
2018-May-16 18:29N 61°56' E 005°07'0 0.0
2018-May-16 17:59N 61°56' E 005°07'0 0.0
2018-May-16 17:29N 61°56' E 005°07'0 0.0
2018-May-16 16:59N 61°56' E 005°07'0 0.0
2018-May-16 16:29N 61°56' E 005°07'0 0.0
2018-May-16 15:59N 61°56' E 005°07'0 0.0
2018-May-16 15:29N 61°56' E 005°07'0 0.0
2018-May-16 14:59N 61°56' E 005°07'0 0.0
2018-May-16 14:29N 61°56' E 005°07'0 0.0
2018-May-16 13:59N 61°56' E 005°07'0 0.0
2018-May-16 13:29N 61°56' E 005°07'0 0.0
2018-May-16 12:59N 61°56' E 005°07'0 0.0
2018-May-16 12:29N 61°56' E 005°07'0 0.0
2018-May-16 11:59N 61°56' E 005°07'0 0.0
2018-May-16 11:29N 61°56' E 005°07'0 0.0
2018-May-16 10:59N 61°56' E 005°07'0 0.0
2018-May-16 10:29N 61°56' E 005°07'0 0.0
2018-May-16 09:59N 61°56' E 005°07'0 0.0
2018-May-16 09:29N 61°56' E 005°07'0 0.0
2018-May-16 08:59N 61°56' E 005°07'0 0.0
2018-May-16 08:29N 61°56' E 005°07'0 0.0
2018-May-16 07:59N 61°56' E 005°07'0 0.0
2018-May-16 07:29N 61°56' E 005°07'0 0.0
2018-May-16 06:59N 61°56' E 005°07'0 0.0
2018-May-16 06:29N 61°56' E 005°07'0 0.0
2018-May-16 05:59N 61°56' E 005°07'0 0.0
2018-May-16 05:29N 61°56' E 005°07'0 0.0
2018-May-16 04:59N 61°56' E 005°07'0 0.0
2018-May-16 04:29N 61°56' E 005°07'0 0.0
2018-May-16 03:59N 61°56' E 005°07'  

Dump ship's entire track history